CXAPS SBGO-SWGI
Flight info
| Callsign | CXAPS |
|---|---|
| Flight time | 2h 50m |
| Altitude | 7000 |
| Route | LODUV DCT MILIX |
| Aircraft | PA22/L-SFG/C |
Departure
| Time | 2026-04-23 18:21 |
|---|---|
| Airport | Santa Genoveva International Airport (SBGO) |
Arrival
| Time | 2026-04-23 21:11 |
|---|---|
| Airport | Gurupi Airport (SWGI) |
| Time | Latitude | Longitude | Altitude | Speed | Heading |
|---|---|---|---|---|---|
| 2026-04-23 18:07 | -16.63331 | -49.22380 | 2454 ft | 0 kts | 205° |
| 2026-04-23 18:11 | -16.63318 | -49.22386 | 2458 ft | 7 kts | 340° |
| 2026-04-23 18:11 | -16.63251 | -49.22428 | 2453 ft | 15 kts | 313° |
| 2026-04-23 18:12 | -16.63194 | -49.22526 | 2456 ft | 14 kts | 303° |
| 2026-04-23 18:12 | -16.63147 | -49.22603 | 2453 ft | 11 kts | 308° |
| 2026-04-23 18:12 | -16.63118 | -49.22652 | 2453 ft | 5 kts | 356° |
| 2026-04-23 18:12 | -16.63097 | -49.22678 | 2453 ft | 8 kts | 275° |
| 2026-04-23 18:13 | -16.63058 | -49.22745 | 2453 ft | 14 kts | 307° |
| 2026-04-23 18:13 | -16.63022 | -49.22823 | 2452 ft | 10 kts | 294° |
| 2026-04-23 18:13 | -16.62993 | -49.22880 | 2452 ft | 7 kts | 300° |
| 2026-04-23 18:13 | -16.62972 | -49.22916 | 2452 ft | 4 kts | 301° |
| 2026-04-23 18:14 | -16.62963 | -49.22932 | 2452 ft | 3 kts | 301° |
| 2026-04-23 18:14 | -16.62944 | -49.22966 | 2452 ft | 7 kts | 301° |
| 2026-04-23 18:14 | -16.62921 | -49.23002 | 2454 ft | 10 kts | 307° |
| 2026-04-23 18:15 | -16.62892 | -49.23009 | 2452 ft | 7 kts | 354° |
| 2026-04-23 18:15 | -16.62881 | -49.23011 | 2452 ft | 4 kts | 345° |
| 2026-04-23 18:16 | -16.62873 | -49.23023 | 2452 ft | 4 kts | 268° |
| 2026-04-23 18:17 | -16.62823 | -49.23101 | 2453 ft | 15 kts | 351° |
| 2026-04-23 18:17 | -16.62768 | -49.23117 | 2453 ft | 7 kts | 347° |
| 2026-04-23 18:17 | -16.62718 | -49.23132 | 2452 ft | 8 kts | 336° |
| 2026-04-23 18:17 | -16.62657 | -49.23135 | 2450 ft | 10 kts | 11° |
| 2026-04-23 18:18 | -16.62639 | -49.23099 | 2450 ft | 6 kts | 116° |
| 2026-04-23 18:18 | -16.62679 | -49.23022 | 2450 ft | 27 kts | 120° |
| 2026-04-23 18:18 | -16.62818 | -49.22761 | 2453 ft | 52 kts | 122° |
| 2026-04-23 18:18 | -16.63036 | -49.22398 | 2486 ft | 62 kts | 125° |
| 2026-04-23 18:19 | -16.63271 | -49.22030 | 2534 ft | 62 kts | 119° |
| 2026-04-23 18:19 | -16.63491 | -49.21643 | 2563 ft | 64 kts | 119° |
| 2026-04-23 18:19 | -16.63682 | -49.21254 | 2645 ft | 57 kts | 112° |
| 2026-04-23 18:19 | -16.63869 | -49.20854 | 2643 ft | 63 kts | 114° |
| 2026-04-23 18:20 | -16.64057 | -49.20437 | 2726 ft | 57 kts | 106° |
| 2026-04-23 18:20 | -16.64162 | -49.20044 | 2855 ft | 58 kts | 108° |
| 2026-04-23 18:20 | -16.64261 | -49.19639 | 2918 ft | 58 kts | 102° |
| 2026-04-23 18:20 | -16.64322 | -49.19196 | 2915 ft | 59 kts | 98° |
| 2026-04-23 18:21 | -16.64314 | -49.18912 | 3020 ft | 62 kts | 82° |
| 2026-04-23 18:21 | -16.64106 | -49.18500 | 3093 ft | 64 kts | 60° |
| 2026-04-23 18:21 | -16.63839 | -49.18124 | 3108 ft | 65 kts | 59° |
| 2026-04-23 18:21 | -16.63638 | -49.17726 | 3152 ft | 60 kts | 65° |
| 2026-04-23 18:22 | -16.63366 | -49.17350 | 3135 ft | 69 kts | 51° |
| 2026-04-23 18:22 | -16.63011 | -49.17027 | 3151 ft | 74 kts | 46° |
| 2026-04-23 18:22 | -16.62572 | -49.16635 | 3201 ft | 80 kts | 40° |
| 2026-04-23 18:22 | -16.62103 | -49.16332 | 3250 ft | 81 kts | 37° |
| 2026-04-23 18:23 | -16.61611 | -49.16088 | 3344 ft | 78 kts | 31° |
| 2026-04-23 18:23 | -16.60600 | -49.15577 | 3436 ft | 84 kts | 27° |
| 2026-04-23 18:24 | -16.59588 | -49.15066 | 3651 ft | 78 kts | 38° |
| 2026-04-23 18:24 | -16.59119 | -49.14779 | 3657 ft | 81 kts | 38° |
| 2026-04-23 18:24 | -16.58640 | -49.14484 | 3775 ft | 76 kts | 41° |
| 2026-04-23 18:25 | -16.57956 | -49.13668 | 3768 ft | 73 kts | 63° |
| 2026-04-23 18:25 | -16.57694 | -49.13213 | 3826 ft | 73 kts | 60° |
| 2026-04-23 18:25 | -16.57413 | -49.12769 | 3860 ft | 75 kts | 62° |
| 2026-04-23 18:25 | -16.57136 | -49.12306 | 3875 ft | 78 kts | 62° |
| 2026-04-23 18:26 | -16.56854 | -49.11832 | 3998 ft | 75 kts | 61° |
| 2026-04-23 18:26 | -16.56567 | -49.11387 | 4053 ft | 73 kts | 60° |
| 2026-04-23 18:26 | -16.56282 | -49.10943 | 4167 ft | 75 kts | 61° |
| 2026-04-23 18:26 | -16.55997 | -49.10492 | 4233 ft | 75 kts | 62° |
| 2026-04-23 18:27 | -16.55718 | -49.10038 | 4277 ft | 75 kts | 63° |
| 2026-04-23 18:27 | -16.55434 | -49.09581 | 4256 ft | 75 kts | 63° |
| 2026-04-23 18:27 | -16.55149 | -49.09122 | 4247 ft | 76 kts | 64° |
| 2026-04-23 18:27 | -16.54847 | -49.08655 | 4310 ft | 78 kts | 65° |
| 2026-04-23 18:28 | -16.54573 | -49.08200 | 4376 ft | 70 kts | 62° |
| 2026-04-23 18:28 | -16.54302 | -49.07758 | 4374 ft | 75 kts | 61° |
| 2026-04-23 18:28 | -16.54005 | -49.07302 | 4462 ft | 75 kts | 63° |
| 2026-04-23 18:28 | -16.53734 | -49.06873 | 4545 ft | 70 kts | 64° |
| 2026-04-23 18:29 | -16.53472 | -49.06452 | 4593 ft | 71 kts | 65° |
| 2026-04-23 18:29 | -16.53202 | -49.06008 | 4706 ft | 73 kts | 64° |
| 2026-04-23 18:29 | -16.52923 | -49.05562 | 4830 ft | 72 kts | 63° |
| 2026-04-23 18:29 | -16.52654 | -49.05132 | 4963 ft | 71 kts | 63° |
| 2026-04-23 18:30 | -16.52388 | -49.04715 | 5048 ft | 69 kts | 64° |
| 2026-04-23 18:30 | -16.52118 | -49.04295 | 5024 ft | 71 kts | 65° |
| 2026-04-23 18:30 | -16.51857 | -49.03853 | 5115 ft | 69 kts | 65° |
| 2026-04-23 18:30 | -16.51594 | -49.03429 | 5185 ft | 68 kts | 63° |
| 2026-04-23 18:31 | -16.51330 | -49.03020 | 5248 ft | 69 kts | 64° |
| 2026-04-23 18:31 | -16.51069 | -49.02605 | 5264 ft | 69 kts | 65° |
| 2026-04-23 18:31 | -16.50809 | -49.02176 | 5269 ft | 70 kts | 63° |
| 2026-04-23 18:31 | -16.50541 | -49.01757 | 5340 ft | 68 kts | 63° |
| 2026-04-23 18:32 | -16.50278 | -49.01344 | 5427 ft | 68 kts | 64° |
| 2026-04-23 18:32 | -16.50018 | -49.00921 | 5529 ft | 71 kts | 64° |
| 2026-04-23 18:32 | -16.49754 | -49.00492 | 5625 ft | 70 kts | 63° |
| 2026-04-23 18:32 | -16.49490 | -49.00070 | 5693 ft | 69 kts | 63° |
| 2026-04-23 18:33 | -16.49226 | -48.99646 | 5768 ft | 71 kts | 61° |
| 2026-04-23 18:33 | -16.48949 | -48.99218 | 5844 ft | 71 kts | 63° |
| 2026-04-23 18:33 | -16.48677 | -48.98797 | 5913 ft | 69 kts | 64° |
| 2026-04-23 18:33 | -16.48418 | -48.98375 | 5949 ft | 69 kts | 64° |
| 2026-04-23 18:34 | -16.48155 | -48.97942 | 5962 ft | 70 kts | 63° |
| 2026-04-23 18:34 | -16.47888 | -48.97513 | 6004 ft | 71 kts | 64° |
| 2026-04-23 18:34 | -16.47616 | -48.97086 | 6040 ft | 72 kts | 64° |
| 2026-04-23 18:34 | -16.47348 | -48.96647 | 6082 ft | 72 kts | 62° |
| 2026-04-23 18:35 | -16.47074 | -48.96211 | 6114 ft | 73 kts | 62° |
| 2026-04-23 18:35 | -16.46791 | -48.95766 | 6151 ft | 74 kts | 63° |
| 2026-04-23 18:35 | -16.46508 | -48.95319 | 6255 ft | 72 kts | 62° |
| 2026-04-23 18:35 | -16.46238 | -48.94887 | 6387 ft | 71 kts | 64° |
| 2026-04-23 18:36 | -16.45971 | -48.94446 | 6480 ft | 73 kts | 63° |
| 2026-04-23 18:36 | -16.45695 | -48.93996 | 6586 ft | 74 kts | 61° |
| 2026-04-23 18:36 | -16.45408 | -48.93558 | 6730 ft | 72 kts | 62° |
| 2026-04-23 18:36 | -16.45147 | -48.93146 | 6878 ft | 60 kts | 64° |
| 2026-04-23 18:37 | -16.44929 | -48.92797 | 6919 ft | 59 kts | 64° |
| 2026-04-23 18:37 | -16.44713 | -48.92449 | 6956 ft | 55 kts | 65° |
| 2026-04-23 18:37 | -16.44519 | -48.92138 | 6942 ft | 50 kts | 64° |
| 2026-04-23 18:37 | -16.44331 | -48.91838 | 6890 ft | 49 kts | 65° |
| 2026-04-23 18:38 | -16.44107 | -48.91422 | 6716 ft | 77 kts | 66° |
| 2026-04-23 18:38 | -16.43819 | -48.90935 | 6729 ft | 80 kts | 64° |
| 2026-04-23 18:38 | -16.43513 | -48.90450 | 6792 ft | 78 kts | 56° |
| 2026-04-23 18:38 | -16.43135 | -48.90027 | 6837 ft | 74 kts | 52° |
| 2026-04-23 18:39 | -16.42744 | -48.89644 | 6790 ft | 83 kts | 37° |
| 2026-04-23 18:39 | -16.42245 | -48.89327 | 6800 ft | 80 kts | 35° |
| 2026-04-23 18:39 | -16.41744 | -48.89087 | 6872 ft | 80 kts | 28° |
| 2026-04-23 18:39 | -16.41207 | -48.88911 | 6899 ft | 83 kts | 25° |
| 2026-04-23 18:40 | -16.40660 | -48.88719 | 6914 ft | 83 kts | 22° |
| 2026-04-23 18:40 | -16.40089 | -48.88595 | 6943 ft | 88 kts | 21° |
| 2026-04-23 18:40 | -16.39503 | -48.88429 | 7080 ft | 81 kts | 25° |
| 2026-04-23 18:40 | -16.39034 | -48.88254 | 7254 ft | 54 kts | 50° |
| 2026-04-23 18:41 | -16.38869 | -48.87820 | 7096 ft | 77 kts | 77° |
| 2026-04-23 18:41 | -16.38791 | -48.87300 | 7288 ft | 52 kts | 103° |
| 2026-04-23 18:41 | -16.38877 | -48.86927 | 7275 ft | 63 kts | 106° |
| 2026-04-23 18:41 | -16.39000 | -48.86462 | 7267 ft | 69 kts | 106° |
| 2026-04-23 18:42 | -16.39130 | -48.85966 | 7290 ft | 75 kts | 105° |
| 2026-04-23 18:42 | -16.39261 | -48.85397 | 7250 ft | 88 kts | 103° |
| 2026-04-23 18:42 | -16.39382 | -48.84728 | 7167 ft | 98 kts | 99° |
| 2026-04-23 18:42 | -16.39316 | -48.84004 | 7115 ft | 105 kts | 76° |
| 2026-04-23 18:43 | -16.39004 | -48.83302 | 7091 ft | 109 kts | 63° |
| 2026-04-23 18:43 | -16.38579 | -48.82637 | 7060 ft | 110 kts | 60° |
| 2026-04-23 18:43 | -16.38150 | -48.81976 | 7054 ft | 109 kts | 60° |
| 2026-04-23 18:43 | -16.37637 | -48.81439 | 7031 ft | 107 kts | 31° |
| 2026-04-23 18:44 | -16.36948 | -48.81140 | 7049 ft | 108 kts | 22° |
| 2026-04-23 18:44 | -16.36232 | -48.80919 | 7034 ft | 107 kts | 22° |
| 2026-04-23 18:44 | -16.35510 | -48.80742 | 7054 ft | 107 kts | 15° |
| 2026-04-23 18:44 | -16.34779 | -48.80574 | 7058 ft | 107 kts | 20° |
| 2026-04-23 18:45 | -16.34049 | -48.80408 | 7058 ft | 108 kts | 15° |
| 2026-04-23 18:45 | -16.33313 | -48.80255 | 7061 ft | 107 kts | 21° |
| 2026-04-23 18:45 | -16.32600 | -48.80004 | 7065 ft | 109 kts | 22° |
| 2026-04-23 18:45 | -16.31856 | -48.79816 | 7052 ft | 109 kts | 18° |
| 2026-04-23 18:46 | -16.31125 | -48.79676 | 7037 ft | 106 kts | 17° |
| 2026-04-23 18:46 | -16.30409 | -48.79513 | 7055 ft | 103 kts | 22° |
| 2026-04-23 18:46 | -16.29740 | -48.79270 | 7069 ft | 104 kts | 25° |
| 2026-04-23 18:46 | -16.29029 | -48.79061 | 7062 ft | 107 kts | 19° |
| 2026-04-23 18:47 | -16.28292 | -48.78880 | 7092 ft | 111 kts | 19° |
| 2026-04-23 18:47 | -16.27526 | -48.78665 | 7082 ft | 116 kts | 20° |
| 2026-04-23 18:47 | -16.26732 | -48.78465 | 7080 ft | 119 kts | 18° |
| 2026-04-23 18:47 | -16.25917 | -48.78274 | 7067 ft | 120 kts | 18° |
| 2026-04-23 18:48 | -16.25105 | -48.78075 | 7052 ft | 120 kts | 17° |
| 2026-04-23 18:48 | -16.24297 | -48.77896 | 7038 ft | 116 kts | 20° |
| 2026-04-23 18:48 | -16.23548 | -48.77666 | 7034 ft | 112 kts | 20° |
| 2026-04-23 18:48 | -16.22798 | -48.77480 | 7032 ft | 109 kts | 18° |
| 2026-04-23 18:49 | -16.22075 | -48.77299 | 7039 ft | 106 kts | 22° |
| 2026-04-23 18:49 | -16.21373 | -48.77107 | 7032 ft | 103 kts | 19° |
| 2026-04-23 18:49 | -16.20688 | -48.76926 | 7058 ft | 101 kts | 24° |
| 2026-04-23 18:49 | -16.20016 | -48.76686 | 7067 ft | 103 kts | 23° |
| 2026-04-23 18:50 | -16.19552 | -48.76544 | 7071 ft | 107 kts | 20° |
| 2026-04-23 18:50 | -16.18573 | -48.76309 | 7040 ft | 108 kts | 18° |
| 2026-04-23 18:50 | -16.17851 | -48.76129 | 7051 ft | 108 kts | 14° |
| 2026-04-23 18:50 | -16.17100 | -48.76010 | 7055 ft | 109 kts | 16° |
| 2026-04-23 18:51 | -16.16355 | -48.75827 | 7043 ft | 110 kts | 21° |
| 2026-04-23 18:51 | -16.15609 | -48.75628 | 7028 ft | 110 kts | 20° |
| 2026-04-23 18:51 | -16.14887 | -48.75432 | 7022 ft | 108 kts | 20° |
| 2026-04-23 18:51 | -16.14164 | -48.75244 | 7026 ft | 107 kts | 20° |
| 2026-04-23 18:52 | -16.13445 | -48.75060 | 7028 ft | 106 kts | 20° |
| 2026-04-23 18:52 | -16.12717 | -48.74882 | 7038 ft | 108 kts | 18° |
| 2026-04-23 18:52 | -16.11982 | -48.74689 | 7035 ft | 110 kts | 19° |
| 2026-04-23 18:52 | -16.11236 | -48.74485 | 7024 ft | 111 kts | 19° |
| 2026-04-23 18:53 | -16.10494 | -48.74244 | 7026 ft | 112 kts | 25° |
| 2026-04-23 18:53 | -16.09754 | -48.73988 | 7013 ft | 113 kts | 21° |
| 2026-04-23 18:53 | -16.09002 | -48.73771 | 7006 ft | 112 kts | 19° |
| 2026-04-23 18:53 | -16.08245 | -48.73617 | 7004 ft | 112 kts | 11° |
| 2026-04-23 18:54 | -16.07479 | -48.73486 | 6988 ft | 110 kts | 16° |
| 2026-04-23 18:54 | -16.06750 | -48.73315 | 6975 ft | 105 kts | 19° |
| 2026-04-23 18:54 | -16.06054 | -48.73118 | 7000 ft | 103 kts | 25° |
| 2026-04-23 18:54 | -16.05361 | -48.72921 | 6998 ft | 104 kts | 20° |
| 2026-04-23 18:55 | -16.04660 | -48.72729 | 7001 ft | 104 kts | 26° |
| 2026-04-23 18:55 | -16.03975 | -48.72483 | 7004 ft | 106 kts | 23° |
| 2026-04-23 18:55 | -16.03255 | -48.72277 | 7001 ft | 109 kts | 20° |
| 2026-04-23 18:55 | -16.02511 | -48.72097 | 6993 ft | 111 kts | 18° |
| 2026-04-23 18:56 | -16.02010 | -48.71981 | 6986 ft | 112 kts | 19° |
| 2026-04-23 18:56 | -16.00984 | -48.71738 | 6974 ft | 114 kts | 14° |
| 2026-04-23 18:56 | -16.00209 | -48.71598 | 6961 ft | 112 kts | 17° |
| 2026-04-23 18:56 | -15.99449 | -48.71423 | 6959 ft | 111 kts | 20° |
| 2026-04-23 18:57 | -15.98714 | -48.71179 | 6967 ft | 111 kts | 29° |
| 2026-04-23 18:57 | -15.97965 | -48.70960 | 6964 ft | 114 kts | 15° |
| 2026-04-23 18:57 | -15.97224 | -48.70739 | 6956 ft | 111 kts | 25° |
| 2026-04-23 18:57 | -15.96477 | -48.70526 | 6958 ft | 112 kts | 19° |
| 2026-04-23 18:58 | -15.95708 | -48.70387 | 6967 ft | 112 kts | 21° |
| 2026-04-23 18:58 | -15.94960 | -48.70151 | 6950 ft | 112 kts | 21° |
| 2026-04-23 18:58 | -15.94195 | -48.69988 | 6954 ft | 113 kts | 12° |
| 2026-04-23 18:58 | -15.93444 | -48.69797 | 6951 ft | 110 kts | 24° |
| 2026-04-23 18:59 | -15.92714 | -48.69556 | 6956 ft | 110 kts | 20° |
| 2026-04-23 18:59 | -15.91974 | -48.69359 | 6939 ft | 109 kts | 17° |
| 2026-04-23 18:59 | -15.91235 | -48.69222 | 6948 ft | 107 kts | 19° |
| 2026-04-23 18:59 | -15.90524 | -48.69003 | 6968 ft | 108 kts | 25° |
| 2026-04-23 19:00 | -15.89786 | -48.68807 | 6955 ft | 111 kts | 16° |
| 2026-04-23 19:00 | -15.89045 | -48.68640 | 6955 ft | 108 kts | 24° |
| 2026-04-23 19:00 | -15.88331 | -48.68410 | 6951 ft | 107 kts | 20° |
| 2026-04-23 19:00 | -15.87605 | -48.68243 | 6955 ft | 107 kts | 14° |
| 2026-04-23 19:01 | -15.86874 | -48.68104 | 6950 ft | 105 kts | 22° |
| 2026-04-23 19:01 | -15.86183 | -48.67868 | 6943 ft | 104 kts | 23° |
| 2026-04-23 19:01 | -15.85498 | -48.67664 | 6943 ft | 102 kts | 18° |
| 2026-04-23 19:01 | -15.84807 | -48.67495 | 6966 ft | 104 kts | 14° |
| 2026-04-23 19:02 | -15.84335 | -48.67403 | 6963 ft | 104 kts | 21° |
| 2026-04-23 19:02 | -15.83385 | -48.67147 | 6980 ft | 108 kts | 16° |
| 2026-04-23 19:02 | -15.82628 | -48.67001 | 6984 ft | 112 kts | 24° |
| 2026-04-23 19:02 | -15.81884 | -48.66734 | 6970 ft | 115 kts | 23° |
| 2026-04-23 19:03 | -15.81096 | -48.66542 | 6952 ft | 117 kts | 13° |
| 2026-04-23 19:03 | -15.80300 | -48.66394 | 6942 ft | 115 kts | 21° |
| 2026-04-23 19:03 | -15.79549 | -48.66168 | 6949 ft | 114 kts | 19° |
| 2026-04-23 19:03 | -15.78799 | -48.65934 | 6940 ft | 112 kts | 22° |
| 2026-04-23 19:04 | -15.78029 | -48.65769 | 6968 ft | 115 kts | 16° |
| 2026-04-23 19:04 | -15.77253 | -48.65550 | 6962 ft | 116 kts | 24° |
| 2026-04-23 19:04 | -15.76472 | -48.65341 | 6946 ft | 117 kts | 15° |
| 2026-04-23 19:04 | -15.75696 | -48.65126 | 6942 ft | 115 kts | 22° |
| 2026-04-23 19:05 | -15.74911 | -48.64967 | 6938 ft | 114 kts | 18° |
| 2026-04-23 19:05 | -15.74154 | -48.64754 | 6959 ft | 112 kts | 26° |
| 2026-04-23 19:05 | -15.73401 | -48.64496 | 6951 ft | 115 kts | 21° |
| 2026-04-23 19:05 | -15.72617 | -48.64316 | 6930 ft | 114 kts | 14° |
| 2026-04-23 19:06 | -15.71852 | -48.64162 | 6939 ft | 111 kts | 14° |
| 2026-04-23 19:06 | -15.71114 | -48.63958 | 6952 ft | 109 kts | 25° |
| 2026-04-23 19:06 | -15.70371 | -48.63753 | 6961 ft | 112 kts | 15° |
| 2026-04-23 19:06 | -15.69609 | -48.63543 | 6966 ft | 115 kts | 20° |
| 2026-04-23 19:07 | -15.68824 | -48.63341 | 6954 ft | 117 kts | 18° |
| 2026-04-23 19:07 | -15.68031 | -48.63175 | 6927 ft | 115 kts | 16° |
| 2026-04-23 19:07 | -15.67263 | -48.62986 | 6948 ft | 113 kts | 20° |
| 2026-04-23 19:07 | -15.66502 | -48.62784 | 6938 ft | 112 kts | 19° |
| 2026-04-23 19:08 | -15.65769 | -48.62536 | 6950 ft | 111 kts | 24° |
| 2026-04-23 19:08 | -15.65019 | -48.62374 | 6935 ft | 111 kts | 17° |
| 2026-04-23 19:08 | -15.64277 | -48.62188 | 6952 ft | 109 kts | 25° |
| 2026-04-23 19:08 | -15.63544 | -48.61945 | 6953 ft | 112 kts | 20° |
| 2026-04-23 19:09 | -15.62783 | -48.61763 | 6949 ft | 113 kts | 14° |
| 2026-04-23 19:09 | -15.62021 | -48.61616 | 6930 ft | 109 kts | 22° |
| 2026-04-23 19:09 | -15.61306 | -48.61373 | 6951 ft | 109 kts | 22° |
| 2026-04-23 19:09 | -15.60563 | -48.61180 | 6949 ft | 111 kts | 17° |
| 2026-04-23 19:10 | -15.60061 | -48.61064 | 6949 ft | 112 kts | 18° |
| 2026-04-23 19:10 | -15.59298 | -48.60889 | 6952 ft | 113 kts | 16° |
| 2026-04-23 19:10 | -15.58524 | -48.60710 | 6955 ft | 115 kts | 20° |
| 2026-04-23 19:10 | -15.57754 | -48.60488 | 6942 ft | 115 kts | 21° |
| 2026-04-23 19:11 | -15.56987 | -48.60263 | 6937 ft | 114 kts | 20° |
| 2026-04-23 19:11 | -15.56223 | -48.60056 | 6929 ft | 113 kts | 22° |
| 2026-04-23 19:11 | -15.55470 | -48.59841 | 6937 ft | 113 kts | 17° |
| 2026-04-23 19:11 | -15.54695 | -48.59697 | 6934 ft | 113 kts | 16° |
| 2026-04-23 19:12 | -15.53938 | -48.59495 | 6939 ft | 112 kts | 21° |
| 2026-04-23 19:12 | -15.53186 | -48.59279 | 6938 ft | 112 kts | 20° |
| 2026-04-23 19:12 | -15.52435 | -48.59078 | 6931 ft | 111 kts | 20° |
| 2026-04-23 19:12 | -15.51697 | -48.58889 | 6931 ft | 110 kts | 19° |
| 2026-04-23 19:13 | -15.50953 | -48.58695 | 6931 ft | 108 kts | 20° |
| 2026-04-23 19:13 | -15.50227 | -48.58509 | 6941 ft | 109 kts | 19° |
| 2026-04-23 19:13 | -15.49471 | -48.58317 | 6940 ft | 111 kts | 18° |
| 2026-04-23 19:13 | -15.48719 | -48.58122 | 6940 ft | 111 kts | 20° |
| 2026-04-23 19:14 | -15.47981 | -48.57934 | 6930 ft | 111 kts | 13° |
| 2026-04-23 19:14 | -15.47203 | -48.57914 | 6929 ft | 113 kts | 359° |
| 2026-04-23 19:14 | -15.46424 | -48.58030 | 6938 ft | 113 kts | 355° |
| 2026-04-23 19:14 | -15.45642 | -48.58158 | 6938 ft | 114 kts | 355° |
| 2026-04-23 19:15 | -15.44851 | -48.58282 | 6939 ft | 116 kts | 356° |
| 2026-04-23 19:15 | -15.44049 | -48.58401 | 6934 ft | 117 kts | 356° |
| 2026-04-23 19:15 | -15.43242 | -48.58516 | 6931 ft | 117 kts | 357° |
| 2026-04-23 19:15 | -15.42433 | -48.58640 | 6930 ft | 117 kts | 356° |
| 2026-04-23 19:16 | -15.41624 | -48.58767 | 6930 ft | 118 kts | 355° |
| 2026-04-23 19:16 | -15.40812 | -48.58887 | 6920 ft | 117 kts | 356° |
| 2026-04-23 19:16 | -15.40014 | -48.59010 | 6924 ft | 116 kts | 356° |
| 2026-04-23 19:17 | -15.38438 | -48.59246 | 6932 ft | 115 kts | 356° |
| 2026-04-23 19:17 | -15.37640 | -48.59365 | 6942 ft | 117 kts | 356° |
| 2026-04-23 19:17 | -15.36824 | -48.59487 | 6937 ft | 119 kts | 357° |
| 2026-04-23 19:17 | -15.36004 | -48.59608 | 6927 ft | 119 kts | 356° |
| 2026-04-23 19:18 | -15.35190 | -48.59735 | 6925 ft | 118 kts | 356° |
| 2026-04-23 19:18 | -15.34374 | -48.59861 | 6936 ft | 119 kts | 357° |
| 2026-04-23 19:18 | -15.33544 | -48.59985 | 6929 ft | 121 kts | 357° |
| 2026-04-23 19:18 | -15.32706 | -48.60106 | 6934 ft | 122 kts | 357° |
| 2026-04-23 19:19 | -15.31032 | -48.60365 | 6913 ft | 119 kts | 357° |
| 2026-04-23 19:19 | -15.30223 | -48.60485 | 6920 ft | 119 kts | 358° |
| 2026-04-23 19:20 | -15.28598 | -48.60726 | 6910 ft | 117 kts | 357° |
| 2026-04-23 19:20 | -15.27798 | -48.60850 | 6920 ft | 116 kts | 356° |
| 2026-04-23 19:20 | -15.26999 | -48.60971 | 6923 ft | 116 kts | 356° |
| 2026-04-23 19:20 | -15.26197 | -48.61091 | 6924 ft | 117 kts | 356° |
| 2026-04-23 19:21 | -15.25391 | -48.61212 | 6918 ft | 117 kts | 356° |
| 2026-04-23 19:21 | -15.23807 | -48.61452 | 6911 ft | 114 kts | 356° |
| 2026-04-23 19:21 | -15.23020 | -48.61570 | 6915 ft | 114 kts | 357° |
| 2026-04-23 19:22 | -15.22239 | -48.61686 | 6921 ft | 114 kts | 357° |
| 2026-04-23 19:22 | -15.21453 | -48.61802 | 6920 ft | 114 kts | 357° |
| 2026-04-23 19:22 | -15.19874 | -48.62041 | 6923 ft | 114 kts | 356° |
| 2026-04-23 19:23 | -15.19091 | -48.62160 | 6895 ft | 112 kts | 356° |
| 2026-04-23 19:23 | -15.18326 | -48.62279 | 6910 ft | 110 kts | 356° |
| 2026-04-23 19:23 | -15.17568 | -48.62391 | 6933 ft | 111 kts | 358° |
| 2026-04-23 19:24 | -15.15991 | -48.62625 | 6934 ft | 117 kts | 357° |
| 2026-04-23 19:24 | -15.15183 | -48.62748 | 6922 ft | 118 kts | 356° |
| 2026-04-23 19:24 | -15.13579 | -48.62994 | 6896 ft | 113 kts | 358° |
| 2026-04-23 19:25 | -15.12012 | -48.63222 | 6922 ft | 114 kts | 357° |
| 2026-04-23 19:25 | -15.10434 | -48.63465 | 6908 ft | 115 kts | 355° |
| 2026-04-23 19:26 | -15.08874 | -48.63699 | 6918 ft | 112 kts | 356° |
| 2026-04-23 19:26 | -15.08100 | -48.63814 | 6917 ft | 112 kts | 356° |
| 2026-04-23 19:27 | -15.06560 | -48.64048 | 6923 ft | 112 kts | 358° |
| 2026-04-23 19:27 | -15.04239 | -48.64395 | 6922 ft | 113 kts | 356° |
| 2026-04-23 19:28 | -15.02664 | -48.64632 | 6925 ft | 116 kts | 356° |
| 2026-04-23 19:28 | -15.01060 | -48.64871 | 6917 ft | 117 kts | 358° |
| 2026-04-23 19:29 | -15.00253 | -48.64991 | 6925 ft | 117 kts | 357° |
| 2026-04-23 19:29 | -14.98631 | -48.65237 | 6923 ft | 119 kts | 356° |
| 2026-04-23 19:30 | -14.96981 | -48.65488 | 6928 ft | 120 kts | 356° |
| 2026-04-23 19:30 | -14.96149 | -48.65612 | 6907 ft | 120 kts | 356° |
| 2026-04-23 19:30 | -14.94478 | -48.65863 | 6892 ft | 121 kts | 358° |
| 2026-04-23 19:31 | -14.93649 | -48.65987 | 6912 ft | 120 kts | 357° |
| 2026-04-23 19:31 | -14.92837 | -48.66108 | 6905 ft | 118 kts | 356° |
| 2026-04-23 19:31 | -14.92024 | -48.66229 | 6918 ft | 118 kts | 358° |
| 2026-04-23 19:31 | -14.91205 | -48.66352 | 6921 ft | 119 kts | 356° |
| 2026-04-23 19:32 | -14.90380 | -48.66477 | 6915 ft | 120 kts | 355° |
| 2026-04-23 19:32 | -14.89555 | -48.66603 | 6918 ft | 120 kts | 356° |
| 2026-04-23 19:32 | -14.88732 | -48.66729 | 6908 ft | 119 kts | 358° |
| 2026-04-23 19:32 | -14.87916 | -48.66846 | 6907 ft | 119 kts | 357° |
| 2026-04-23 19:33 | -14.87100 | -48.66965 | 6909 ft | 118 kts | 356° |
| 2026-04-23 19:33 | -14.86291 | -48.67113 | 6908 ft | 118 kts | 354° |
| 2026-04-23 19:33 | -14.84826 | -48.67320 | 6906 ft | 118 kts | 359° |
| 2026-04-23 19:34 | -14.84017 | -48.67424 | 6907 ft | 117 kts | 358° |
| 2026-04-23 19:34 | -14.83214 | -48.67542 | 6914 ft | 118 kts | 356° |
| 2026-04-23 19:34 | -14.81577 | -48.67794 | 6920 ft | 120 kts | 356° |
| 2026-04-23 19:35 | -14.80750 | -48.67918 | 6906 ft | 120 kts | 355° |
| 2026-04-23 19:35 | -14.79927 | -48.68045 | 6905 ft | 119 kts | 358° |
| 2026-04-23 19:35 | -14.79104 | -48.68166 | 6910 ft | 120 kts | 357° |
| 2026-04-23 19:35 | -14.78280 | -48.68286 | 6918 ft | 120 kts | 357° |
| 2026-04-23 19:36 | -14.77453 | -48.68414 | 6895 ft | 119 kts | 357° |
| 2026-04-23 19:36 | -14.76640 | -48.68536 | 6907 ft | 118 kts | 356° |
| 2026-04-23 19:36 | -14.75829 | -48.68658 | 6908 ft | 118 kts | 356° |
| 2026-04-23 19:36 | -14.75021 | -48.68781 | 6902 ft | 117 kts | 357° |
| 2026-04-23 19:37 | -14.74221 | -48.68903 | 6906 ft | 116 kts | 357° |
| 2026-04-23 19:37 | -14.73418 | -48.69021 | 6910 ft | 117 kts | 357° |
| 2026-04-23 19:37 | -14.72613 | -48.69143 | 6905 ft | 117 kts | 356° |
| 2026-04-23 19:37 | -14.71813 | -48.69263 | 6902 ft | 116 kts | 357° |
| 2026-04-23 19:38 | -14.71024 | -48.69379 | 6904 ft | 115 kts | 356° |
| 2026-04-23 19:38 | -14.70234 | -48.69499 | 6889 ft | 113 kts | 356° |
| 2026-04-23 19:38 | -14.69454 | -48.69615 | 6897 ft | 114 kts | 357° |
| 2026-04-23 19:38 | -14.68669 | -48.69730 | 6898 ft | 114 kts | 355° |
| 2026-04-23 19:39 | -14.67891 | -48.69849 | 6896 ft | 113 kts | 356° |
| 2026-04-23 19:39 | -14.67118 | -48.69967 | 6899 ft | 111 kts | 356° |
| 2026-04-23 19:39 | -14.66355 | -48.70083 | 6911 ft | 111 kts | 357° |
| 2026-04-23 19:39 | -14.65588 | -48.70196 | 6923 ft | 113 kts | 357° |
| 2026-04-23 19:40 | -14.64805 | -48.70309 | 6927 ft | 115 kts | 357° |
| 2026-04-23 19:40 | -14.64004 | -48.70427 | 6917 ft | 117 kts | 355° |
| 2026-04-23 19:40 | -14.63203 | -48.70548 | 6895 ft | 117 kts | 355° |
| 2026-04-23 19:40 | -14.62406 | -48.70671 | 6895 ft | 115 kts | 356° |
| 2026-04-23 19:41 | -14.61616 | -48.70792 | 6904 ft | 114 kts | 356° |
| 2026-04-23 19:41 | -14.60825 | -48.70910 | 6916 ft | 116 kts | 356° |
| 2026-04-23 19:41 | -14.60021 | -48.71029 | 6910 ft | 117 kts | 356° |
| 2026-04-23 19:41 | -14.59212 | -48.71151 | 6908 ft | 118 kts | 357° |
| 2026-04-23 19:42 | -14.58417 | -48.71270 | 6899 ft | 116 kts | 356° |
| 2026-04-23 19:42 | -14.57617 | -48.71389 | 6903 ft | 116 kts | 356° |
| 2026-04-23 19:42 | -14.56813 | -48.71509 | 6905 ft | 117 kts | 356° |
| 2026-04-23 19:42 | -14.56010 | -48.71627 | 6888 ft | 116 kts | 356° |
| 2026-04-23 19:43 | -14.55214 | -48.71751 | 6899 ft | 115 kts | 356° |
| 2026-04-23 19:43 | -14.54416 | -48.71872 | 6906 ft | 116 kts | 356° |
| 2026-04-23 19:43 | -14.53615 | -48.71982 | 6899 ft | 116 kts | 356° |
| 2026-04-23 19:43 | -14.52823 | -48.72100 | 6895 ft | 115 kts | 355° |
| 2026-04-23 19:44 | -14.52032 | -48.72224 | 6883 ft | 114 kts | 356° |
| 2026-04-23 19:44 | -14.51253 | -48.72342 | 6892 ft | 112 kts | 356° |
| 2026-04-23 19:44 | -14.50489 | -48.72459 | 6904 ft | 113 kts | 357° |
| 2026-04-23 19:44 | -14.49711 | -48.72571 | 6898 ft | 113 kts | 356° |
| 2026-04-23 19:45 | -14.48932 | -48.72685 | 6906 ft | 114 kts | 356° |
| 2026-04-23 19:45 | -14.48146 | -48.72802 | 6901 ft | 114 kts | 356° |
| 2026-04-23 19:45 | -14.47354 | -48.72926 | 6904 ft | 116 kts | 355° |
| 2026-04-23 19:45 | -14.46553 | -48.73046 | 6896 ft | 117 kts | 356° |
| 2026-04-23 19:46 | -14.45748 | -48.73168 | 6899 ft | 117 kts | 356° |
| 2026-04-23 19:46 | -14.44947 | -48.73282 | 6882 ft | 115 kts | 356° |
| 2026-04-23 19:46 | -14.44157 | -48.73399 | 6894 ft | 114 kts | 356° |
| 2026-04-23 19:46 | -14.43368 | -48.73518 | 6897 ft | 115 kts | 356° |
| 2026-04-23 19:47 | -14.42847 | -48.73599 | 6896 ft | 114 kts | 356° |
| 2026-04-23 19:47 | -14.41795 | -48.73755 | 6892 ft | 114 kts | 356° |
| 2026-04-23 19:47 | -14.41012 | -48.73872 | 6894 ft | 114 kts | 356° |
| 2026-04-23 19:47 | -14.40224 | -48.73989 | 6897 ft | 115 kts | 356° |
| 2026-04-23 19:48 | -14.39679 | -48.74070 | 6899 ft | 115 kts | 357° |
| 2026-04-23 19:48 | -14.38882 | -48.74189 | 6904 ft | 116 kts | 357° |
| 2026-04-23 19:48 | -14.38079 | -48.74307 | 6895 ft | 117 kts | 356° |
| 2026-04-23 19:48 | -14.37270 | -48.74432 | 6894 ft | 118 kts | 358° |
| 2026-04-23 19:49 | -14.36463 | -48.74552 | 6896 ft | 117 kts | 357° |
| 2026-04-23 19:49 | -14.35647 | -48.74667 | 6895 ft | 119 kts | 355° |
| 2026-04-23 19:49 | -14.34829 | -48.74794 | 6893 ft | 119 kts | 356° |
| 2026-04-23 19:49 | -14.34012 | -48.74919 | 6893 ft | 119 kts | 355° |
| 2026-04-23 19:50 | -14.33193 | -48.75045 | 6903 ft | 119 kts | 356° |
| 2026-04-23 19:50 | -14.32365 | -48.75165 | 6885 ft | 120 kts | 358° |
| 2026-04-23 19:50 | -14.31549 | -48.75283 | 6871 ft | 117 kts | 357° |
| 2026-04-23 19:50 | -14.30747 | -48.75402 | 6884 ft | 116 kts | 356° |
| 2026-04-23 19:51 | -14.29942 | -48.75527 | 6910 ft | 119 kts | 356° |
| 2026-04-23 19:51 | -14.29115 | -48.75650 | 6909 ft | 121 kts | 357° |
| 2026-04-23 19:51 | -14.28275 | -48.75771 | 6897 ft | 122 kts | 356° |
| 2026-04-23 19:51 | -14.27435 | -48.75895 | 6888 ft | 121 kts | 356° |
| 2026-04-23 19:52 | -14.26882 | -48.75981 | 6894 ft | 121 kts | 356° |
| 2026-04-23 19:52 | -14.25774 | -48.76148 | 6893 ft | 121 kts | 357° |
| 2026-04-23 19:52 | -14.24937 | -48.76273 | 6889 ft | 121 kts | 356° |
| 2026-04-23 19:52 | -14.24108 | -48.76396 | 6883 ft | 119 kts | 356° |
| 2026-04-23 19:53 | -14.23291 | -48.76518 | 6885 ft | 118 kts | 356° |
| 2026-04-23 19:53 | -14.22482 | -48.76639 | 6886 ft | 117 kts | 357° |
| 2026-04-23 19:53 | -14.21676 | -48.76762 | 6891 ft | 117 kts | 357° |
| 2026-04-23 19:53 | -14.20871 | -48.76879 | 6893 ft | 117 kts | 358° |
| 2026-04-23 19:54 | -14.20072 | -48.76998 | 6878 ft | 115 kts | 358° |
| 2026-04-23 19:54 | -14.19280 | -48.77116 | 6892 ft | 115 kts | 356° |
| 2026-04-23 19:54 | -14.18485 | -48.77234 | 6903 ft | 116 kts | 356° |
| 2026-04-23 19:54 | -14.17682 | -48.77354 | 6887 ft | 116 kts | 357° |
| 2026-04-23 19:55 | -14.16886 | -48.77475 | 6887 ft | 115 kts | 357° |
| 2026-04-23 19:55 | -14.16096 | -48.77592 | 6893 ft | 115 kts | 358° |
| 2026-04-23 19:55 | -14.15306 | -48.77707 | 6891 ft | 114 kts | 358° |
| 2026-04-23 19:55 | -14.14523 | -48.77828 | 6888 ft | 113 kts | 358° |
| 2026-04-23 19:56 | -14.13745 | -48.77945 | 6887 ft | 112 kts | 358° |
| 2026-04-23 19:56 | -14.12972 | -48.78059 | 6891 ft | 113 kts | 358° |
| 2026-04-23 19:56 | -14.12206 | -48.78174 | 6890 ft | 113 kts | 357° |
| 2026-04-23 19:56 | -14.11429 | -48.78287 | 6890 ft | 113 kts | 358° |
| 2026-04-23 19:57 | -14.10651 | -48.78403 | 6890 ft | 113 kts | 358° |
| 2026-04-23 19:57 | -14.09871 | -48.78519 | 6892 ft | 114 kts | 357° |
| 2026-04-23 19:57 | -14.09341 | -48.78597 | 6893 ft | 114 kts | 356° |
| 2026-04-23 19:57 | -14.08298 | -48.78755 | 6897 ft | 115 kts | 356° |
| 2026-04-23 19:58 | -14.07501 | -48.78874 | 6893 ft | 116 kts | 357° |
| 2026-04-23 19:58 | -14.06706 | -48.78994 | 6887 ft | 115 kts | 357° |
| 2026-04-23 19:58 | -14.05917 | -48.79113 | 6891 ft | 114 kts | 357° |
| 2026-04-23 19:58 | -14.05397 | -48.79186 | 6894 ft | 114 kts | 357° |
| 2026-04-23 19:59 | -14.04355 | -48.79340 | 6896 ft | 114 kts | 357° |
| 2026-04-23 19:59 | -14.03563 | -48.79459 | 6898 ft | 116 kts | 358° |
| 2026-04-23 19:59 | -14.02765 | -48.79577 | 6888 ft | 116 kts | 358° |
| 2026-04-23 19:59 | -14.01965 | -48.79699 | 6891 ft | 116 kts | 357° |
| 2026-04-23 20:00 | -14.01434 | -48.79779 | 6894 ft | 117 kts | 358° |
| 2026-04-23 20:00 | -14.00629 | -48.79898 | 6885 ft | 117 kts | 357° |
| 2026-04-23 20:00 | -13.99829 | -48.80016 | 6891 ft | 116 kts | 358° |
| 2026-04-23 20:00 | -13.99032 | -48.80134 | 6890 ft | 115 kts | 358° |
| 2026-04-23 20:01 | -13.98242 | -48.80251 | 6877 ft | 115 kts | 358° |
| 2026-04-23 20:01 | -13.97449 | -48.80365 | 6895 ft | 115 kts | 358° |
| 2026-04-23 20:01 | -13.96658 | -48.80490 | 6887 ft | 115 kts | 358° |
| 2026-04-23 20:01 | -13.95861 | -48.80603 | 6902 ft | 116 kts | 358° |
| 2026-04-23 20:02 | -13.95062 | -48.80720 | 6898 ft | 118 kts | 357° |
| 2026-04-23 20:02 | -13.94245 | -48.80846 | 6898 ft | 120 kts | 357° |
| 2026-04-23 20:02 | -13.93417 | -48.80972 | 6897 ft | 121 kts | 357° |
| 2026-04-23 20:02 | -13.92578 | -48.81094 | 6900 ft | 123 kts | 359° |
| 2026-04-23 20:03 | -13.91724 | -48.81222 | 6895 ft | 124 kts | 357° |
| 2026-04-23 20:03 | -13.90863 | -48.81349 | 6895 ft | 125 kts | 356° |
| 2026-04-23 20:03 | -13.90001 | -48.81478 | 6892 ft | 125 kts | 358° |
| 2026-04-23 20:03 | -13.89143 | -48.81606 | 6889 ft | 125 kts | 357° |
| 2026-04-23 20:04 | -13.88287 | -48.81734 | 6900 ft | 124 kts | 358° |
| 2026-04-23 20:04 | -13.87432 | -48.81860 | 6884 ft | 124 kts | 357° |
| 2026-04-23 20:04 | -13.86581 | -48.81986 | 6875 ft | 123 kts | 357° |
| 2026-04-23 20:04 | -13.85740 | -48.82113 | 6871 ft | 122 kts | 356° |
| 2026-04-23 20:05 | -13.84899 | -48.82239 | 6881 ft | 122 kts | 357° |
| 2026-04-23 20:05 | -13.84074 | -48.82358 | 6891 ft | 121 kts | 357° |
| 2026-04-23 20:05 | -13.83241 | -48.82482 | 6875 ft | 120 kts | 356° |
| 2026-04-23 20:05 | -13.82416 | -48.82608 | 6882 ft | 120 kts | 356° |
| 2026-04-23 20:06 | -13.81588 | -48.82732 | 6889 ft | 120 kts | 357° |
| 2026-04-23 20:06 | -13.80757 | -48.82854 | 6887 ft | 120 kts | 358° |
| 2026-04-23 20:06 | -13.79927 | -48.82977 | 6877 ft | 120 kts | 357° |
| 2026-04-23 20:06 | -13.79101 | -48.83103 | 6886 ft | 120 kts | 358° |
| 2026-04-23 20:07 | -13.78274 | -48.83224 | 6876 ft | 120 kts | 359° |
| 2026-04-23 20:07 | -13.77445 | -48.83343 | 6881 ft | 120 kts | 358° |
| 2026-04-23 20:07 | -13.76617 | -48.83461 | 6890 ft | 120 kts | 357° |
| 2026-04-23 20:07 | -13.75807 | -48.83587 | 6876 ft | 118 kts | 356° |
| 2026-04-23 20:08 | -13.75001 | -48.83710 | 6873 ft | 116 kts | 357° |
| 2026-04-23 20:08 | -13.74205 | -48.83829 | 6884 ft | 115 kts | 357° |
| 2026-04-23 20:08 | -13.73404 | -48.83945 | 6893 ft | 117 kts | 357° |
| 2026-04-23 20:08 | -13.72592 | -48.84064 | 6890 ft | 119 kts | 357° |
| 2026-04-23 20:09 | -13.71778 | -48.84187 | 6873 ft | 118 kts | 357° |
| 2026-04-23 20:09 | -13.70970 | -48.84308 | 6879 ft | 117 kts | 358° |
| 2026-04-23 20:09 | -13.70174 | -48.84424 | 6855 ft | 114 kts | 357° |
| 2026-04-23 20:09 | -13.69394 | -48.84540 | 6876 ft | 113 kts | 356° |
| 2026-04-23 20:10 | -13.68616 | -48.84658 | 6872 ft | 113 kts | 356° |
| 2026-04-23 20:10 | -13.67841 | -48.84772 | 6890 ft | 113 kts | 357° |
| 2026-04-23 20:10 | -13.67052 | -48.84888 | 6894 ft | 116 kts | 356° |
| 2026-04-23 20:10 | -13.66253 | -48.85010 | 6881 ft | 116 kts | 357° |
| 2026-04-23 20:11 | -13.65457 | -48.85126 | 6875 ft | 115 kts | 357° |
| 2026-04-23 20:11 | -13.64673 | -48.85244 | 6874 ft | 115 kts | 357° |
| 2026-04-23 20:11 | -13.63883 | -48.85360 | 6874 ft | 115 kts | 357° |
| 2026-04-23 20:11 | -13.63094 | -48.85476 | 6880 ft | 114 kts | 356° |
| 2026-04-23 20:12 | -13.62308 | -48.85594 | 6879 ft | 114 kts | 356° |
| 2026-04-23 20:12 | -13.61521 | -48.85710 | 6879 ft | 115 kts | 356° |
| 2026-04-23 20:12 | -13.60726 | -48.85830 | 6880 ft | 116 kts | 356° |
| 2026-04-23 20:12 | -13.59927 | -48.85946 | 6879 ft | 116 kts | 357° |
| 2026-04-23 20:13 | -13.59126 | -48.86066 | 6870 ft | 116 kts | 356° |
| 2026-04-23 20:13 | -13.58331 | -48.86183 | 6878 ft | 116 kts | 356° |
| 2026-04-23 20:13 | -13.57540 | -48.86301 | 6885 ft | 117 kts | 356° |
| 2026-04-23 20:13 | -13.56737 | -48.86421 | 6877 ft | 116 kts | 356° |
| 2026-04-23 20:14 | -13.55936 | -48.86540 | 6877 ft | 117 kts | 356° |
| 2026-04-23 20:14 | -13.55128 | -48.86659 | 6881 ft | 117 kts | 356° |
| 2026-04-23 20:14 | -13.54316 | -48.86778 | 6886 ft | 119 kts | 356° |
| 2026-04-23 20:14 | -13.53495 | -48.86900 | 6879 ft | 119 kts | 356° |
| 2026-04-23 20:15 | -13.52675 | -48.87022 | 6868 ft | 118 kts | 356° |
| 2026-04-23 20:15 | -13.51864 | -48.87144 | 6866 ft | 117 kts | 356° |
| 2026-04-23 20:15 | -13.51063 | -48.87265 | 6865 ft | 116 kts | 356° |
| 2026-04-23 20:15 | -13.50262 | -48.87381 | 6876 ft | 116 kts | 356° |
| 2026-04-23 20:16 | -13.49458 | -48.87498 | 6880 ft | 117 kts | 356° |
| 2026-04-23 20:16 | -13.48657 | -48.87617 | 6876 ft | 118 kts | 356° |
| 2026-04-23 20:16 | -13.47848 | -48.87736 | 6873 ft | 118 kts | 355° |
| 2026-04-23 20:16 | -13.47037 | -48.87859 | 6877 ft | 118 kts | 355° |
| 2026-04-23 20:17 | -13.46225 | -48.87981 | 6881 ft | 119 kts | 356° |
| 2026-04-23 20:17 | -13.45404 | -48.88101 | 6874 ft | 119 kts | 356° |
| 2026-04-23 20:17 | -13.44583 | -48.88221 | 6872 ft | 119 kts | 356° |
| 2026-04-23 20:17 | -13.43763 | -48.88345 | 6871 ft | 119 kts | 356° |
| 2026-04-23 20:18 | -13.42944 | -48.88466 | 6861 ft | 119 kts | 356° |
| 2026-04-23 20:18 | -13.42125 | -48.88587 | 6866 ft | 119 kts | 356° |
| 2026-04-23 20:18 | -13.41306 | -48.88707 | 6874 ft | 119 kts | 356° |
| 2026-04-23 20:18 | -13.40480 | -48.88830 | 6872 ft | 120 kts | 356° |
| 2026-04-23 20:19 | -13.39655 | -48.88954 | 6861 ft | 119 kts | 356° |
| 2026-04-23 20:19 | -13.38835 | -48.89075 | 6866 ft | 119 kts | 357° |
| 2026-04-23 20:19 | -13.38020 | -48.89194 | 6851 ft | 117 kts | 356° |
| 2026-04-23 20:19 | -13.37212 | -48.89314 | 6862 ft | 117 kts | 356° |
| 2026-04-23 20:20 | -13.36406 | -48.89432 | 6860 ft | 117 kts | 356° |
| 2026-04-23 20:20 | -13.35604 | -48.89553 | 6866 ft | 117 kts | 356° |
| 2026-04-23 20:20 | -13.34802 | -48.89672 | 6871 ft | 117 kts | 356° |
| 2026-04-23 20:20 | -13.33998 | -48.89792 | 6870 ft | 117 kts | 356° |
| 2026-04-23 20:21 | -13.33196 | -48.89909 | 6867 ft | 116 kts | 356° |
| 2026-04-23 20:21 | -13.32394 | -48.90027 | 6868 ft | 116 kts | 356° |
| 2026-04-23 20:21 | -13.31597 | -48.90145 | 6862 ft | 115 kts | 356° |
| 2026-04-23 20:21 | -13.30805 | -48.90262 | 6865 ft | 115 kts | 356° |
| 2026-04-23 20:22 | -13.30020 | -48.90380 | 6871 ft | 116 kts | 356° |
| 2026-04-23 20:22 | -13.29207 | -48.90499 | 6877 ft | 117 kts | 356° |
| 2026-04-23 20:22 | -13.28411 | -48.90617 | 6864 ft | 116 kts | 356° |
| 2026-04-23 20:22 | -13.27616 | -48.90735 | 6861 ft | 115 kts | 356° |
| 2026-04-23 20:23 | -13.26830 | -48.90852 | 6859 ft | 113 kts | 356° |
| 2026-04-23 20:23 | -13.26048 | -48.90967 | 6875 ft | 114 kts | 356° |
| 2026-04-23 20:23 | -13.25259 | -48.91085 | 6871 ft | 115 kts | 357° |
| 2026-04-23 20:23 | -13.24466 | -48.91201 | 6869 ft | 115 kts | 357° |
| 2026-04-23 20:24 | -13.23674 | -48.91319 | 6868 ft | 115 kts | 357° |
| 2026-04-23 20:24 | -13.22884 | -48.91434 | 6864 ft | 115 kts | 356° |
| 2026-04-23 20:24 | -13.22093 | -48.91550 | 6872 ft | 115 kts | 356° |
| 2026-04-23 20:24 | -13.21295 | -48.91669 | 6872 ft | 117 kts | 356° |
| 2026-04-23 20:25 | -13.20488 | -48.91790 | 6864 ft | 117 kts | 356° |
| 2026-04-23 20:25 | -13.19687 | -48.91911 | 6854 ft | 116 kts | 357° |
| 2026-04-23 20:25 | -13.18895 | -48.92026 | 6859 ft | 114 kts | 357° |
| 2026-04-23 20:25 | -13.18107 | -48.92142 | 6870 ft | 114 kts | 356° |
| 2026-04-23 20:26 | -13.17315 | -48.92258 | 6872 ft | 115 kts | 356° |
| 2026-04-23 20:26 | -13.16518 | -48.92376 | 6874 ft | 116 kts | 356° |
| 2026-04-23 20:26 | -13.15714 | -48.92495 | 6875 ft | 117 kts | 356° |
| 2026-04-23 20:26 | -13.14915 | -48.92614 | 6858 ft | 117 kts | 356° |
| 2026-04-23 20:27 | -13.14112 | -48.92732 | 6860 ft | 116 kts | 356° |
| 2026-04-23 20:27 | -13.13314 | -48.92849 | 6855 ft | 116 kts | 356° |
| 2026-04-23 20:27 | -13.12519 | -48.92968 | 6859 ft | 115 kts | 356° |
| 2026-04-23 20:27 | -13.11730 | -48.93086 | 6866 ft | 115 kts | 357° |
| 2026-04-23 20:28 | -13.10936 | -48.93201 | 6868 ft | 115 kts | 357° |
| 2026-04-23 20:28 | -13.10138 | -48.93318 | 6867 ft | 116 kts | 356° |
| 2026-04-23 20:28 | -13.09342 | -48.93435 | 6861 ft | 116 kts | 356° |
| 2026-04-23 20:28 | -13.08543 | -48.93556 | 6865 ft | 116 kts | 356° |
| 2026-04-23 20:29 | -13.07743 | -48.93674 | 6869 ft | 116 kts | 356° |
| 2026-04-23 20:29 | -13.06943 | -48.93793 | 6868 ft | 116 kts | 356° |
| 2026-04-23 20:29 | -13.06141 | -48.93911 | 6868 ft | 116 kts | 356° |
| 2026-04-23 20:29 | -13.05343 | -48.94029 | 6863 ft | 116 kts | 357° |
| 2026-04-23 20:30 | -13.04544 | -48.94145 | 6868 ft | 116 kts | 356° |
| 2026-04-23 20:30 | -13.02941 | -48.94383 | 6862 ft | 116 kts | 356° |
| 2026-04-23 20:30 | -13.02151 | -48.94500 | 6860 ft | 116 kts | 356° |
| 2026-04-23 20:31 | -13.01356 | -48.94619 | 6869 ft | 115 kts | 357° |
| 2026-04-23 20:31 | -13.00557 | -48.94735 | 6873 ft | 116 kts | 357° |
| 2026-04-23 20:31 | -12.99753 | -48.94852 | 6870 ft | 117 kts | 356° |
| 2026-04-23 20:31 | -12.98946 | -48.94972 | 6863 ft | 117 kts | 356° |
| 2026-04-23 20:32 | -12.98135 | -48.95092 | 6868 ft | 118 kts | 356° |
| 2026-04-23 20:32 | -12.97324 | -48.95213 | 6867 ft | 118 kts | 356° |
| 2026-04-23 20:32 | -12.96514 | -48.95333 | 6866 ft | 118 kts | 357° |
| 2026-04-23 20:32 | -12.95701 | -48.95452 | 6861 ft | 118 kts | 357° |
| 2026-04-23 20:33 | -12.94890 | -48.95571 | 6858 ft | 117 kts | 356° |
| 2026-04-23 20:33 | -12.94094 | -48.95688 | 6858 ft | 117 kts | 356° |
| 2026-04-23 20:33 | -12.93290 | -48.95808 | 6865 ft | 117 kts | 356° |
| 2026-04-23 20:33 | -12.92484 | -48.95928 | 6864 ft | 117 kts | 357° |
| 2026-04-23 20:34 | -12.91679 | -48.96046 | 6861 ft | 117 kts | 357° |
| 2026-04-23 20:34 | -12.90874 | -48.96164 | 6861 ft | 117 kts | 357° |
| 2026-04-23 20:34 | -12.90071 | -48.96284 | 6866 ft | 117 kts | 357° |
| 2026-04-23 20:34 | -12.89263 | -48.96401 | 6866 ft | 117 kts | 357° |
| 2026-04-23 20:35 | -12.88455 | -48.96519 | 6863 ft | 117 kts | 356° |
| 2026-04-23 20:35 | -12.87646 | -48.96641 | 6862 ft | 118 kts | 357° |
| 2026-04-23 20:35 | -12.86836 | -48.96760 | 6870 ft | 118 kts | 357° |
| 2026-04-23 20:35 | -12.86024 | -48.96880 | 6863 ft | 118 kts | 357° |
| 2026-04-23 20:36 | -12.85212 | -48.97000 | 6868 ft | 118 kts | 357° |
| 2026-04-23 20:36 | -12.84399 | -48.97118 | 6859 ft | 118 kts | 357° |
| 2026-04-23 20:36 | -12.83589 | -48.97239 | 6856 ft | 117 kts | 357° |
| 2026-04-23 20:36 | -12.82780 | -48.97359 | 6858 ft | 117 kts | 357° |
| 2026-04-23 20:37 | -12.81983 | -48.97475 | 6863 ft | 117 kts | 357° |
| 2026-04-23 20:37 | -12.81174 | -48.97595 | 6868 ft | 118 kts | 357° |
| 2026-04-23 20:37 | -12.80357 | -48.97714 | 6867 ft | 119 kts | 357° |
| 2026-04-23 20:37 | -12.79535 | -48.97835 | 6859 ft | 119 kts | 356° |
| 2026-04-23 20:38 | -12.78715 | -48.97957 | 6858 ft | 119 kts | 356° |
| 2026-04-23 20:38 | -12.77900 | -48.98079 | 6853 ft | 118 kts | 357° |
| 2026-04-23 20:38 | -12.77091 | -48.98198 | 6854 ft | 117 kts | 357° |
| 2026-04-23 20:38 | -12.76284 | -48.98317 | 6856 ft | 117 kts | 357° |
| 2026-04-23 20:39 | -12.75472 | -48.98433 | 6858 ft | 117 kts | 357° |
| 2026-04-23 20:39 | -12.74669 | -48.98553 | 6860 ft | 117 kts | 357° |
| 2026-04-23 20:39 | -12.73863 | -48.98672 | 6864 ft | 117 kts | 356° |
| 2026-04-23 20:39 | -12.73058 | -48.98792 | 6867 ft | 117 kts | 357° |
| 2026-04-23 20:40 | -12.72257 | -48.98910 | 6858 ft | 118 kts | 357° |
| 2026-04-23 20:40 | -12.71445 | -48.99027 | 6862 ft | 118 kts | 357° |
| 2026-04-23 20:40 | -12.70633 | -48.99148 | 6864 ft | 118 kts | 357° |
| 2026-04-23 20:40 | -12.69810 | -48.99270 | 6866 ft | 118 kts | 357° |
| 2026-04-23 20:41 | -12.69004 | -48.99388 | 6862 ft | 119 kts | 357° |
| 2026-04-23 20:41 | -12.68179 | -48.99510 | 6856 ft | 118 kts | 357° |
| 2026-04-23 20:41 | -12.67373 | -48.99628 | 6863 ft | 118 kts | 357° |
| 2026-04-23 20:41 | -12.66560 | -48.99748 | 6862 ft | 118 kts | 357° |
| 2026-04-23 20:42 | -12.65751 | -48.99867 | 6859 ft | 118 kts | 357° |
| 2026-04-23 20:42 | -12.64935 | -48.99987 | 6869 ft | 118 kts | 357° |
| 2026-04-23 20:42 | -12.64118 | -49.00107 | 6869 ft | 119 kts | 357° |
| 2026-04-23 20:42 | -12.63294 | -49.00229 | 6862 ft | 120 kts | 357° |
| 2026-04-23 20:43 | -12.62471 | -49.00350 | 6863 ft | 119 kts | 357° |
| 2026-04-23 20:43 | -12.61645 | -49.00472 | 6864 ft | 120 kts | 357° |
| 2026-04-23 20:43 | -12.60817 | -49.00594 | 6869 ft | 121 kts | 357° |
| 2026-04-23 20:43 | -12.59985 | -49.00716 | 6867 ft | 121 kts | 357° |
| 2026-04-23 20:44 | -12.59149 | -49.00838 | 6867 ft | 121 kts | 357° |
| 2026-04-23 20:44 | -12.58323 | -49.00961 | 6867 ft | 121 kts | 357° |
| 2026-04-23 20:44 | -12.57478 | -49.01085 | 6864 ft | 121 kts | 357° |
| 2026-04-23 20:44 | -12.56654 | -49.01206 | 6867 ft | 121 kts | 357° |
| 2026-04-23 20:45 | -12.55818 | -49.01329 | 6865 ft | 121 kts | 358° |
| 2026-04-23 20:45 | -12.54982 | -49.01452 | 6868 ft | 122 kts | 358° |
| 2026-04-23 20:45 | -12.54143 | -49.01576 | 6867 ft | 122 kts | 358° |
| 2026-04-23 20:45 | -12.53303 | -49.01699 | 6862 ft | 122 kts | 358° |
| 2026-04-23 20:46 | -12.52465 | -49.01823 | 6863 ft | 122 kts | 358° |
| 2026-04-23 20:46 | -12.51629 | -49.01946 | 6858 ft | 121 kts | 358° |
| 2026-04-23 20:46 | -12.50793 | -49.02069 | 6861 ft | 121 kts | 358° |
| 2026-04-23 20:46 | -12.49961 | -49.02191 | 6868 ft | 121 kts | 358° |
| 2026-04-23 20:47 | -12.49128 | -49.02313 | 6865 ft | 121 kts | 358° |
| 2026-04-23 20:47 | -12.48296 | -49.02436 | 6866 ft | 121 kts | 358° |
| 2026-04-23 20:47 | -12.47465 | -49.02558 | 6864 ft | 121 kts | 358° |
| 2026-04-23 20:47 | -12.46633 | -49.02681 | 6870 ft | 121 kts | 358° |
| 2026-04-23 20:48 | -12.46081 | -49.02761 | 6867 ft | 121 kts | 358° |
| 2026-04-23 20:48 | -12.45245 | -49.02884 | 6865 ft | 121 kts | 358° |
| 2026-04-23 20:48 | -12.44407 | -49.03007 | 6866 ft | 122 kts | 358° |
| 2026-04-23 20:48 | -12.43571 | -49.03130 | 6869 ft | 122 kts | 358° |
| 2026-04-23 20:49 | -12.42461 | -49.03294 | 6863 ft | 121 kts | 358° |
| 2026-04-23 20:49 | -12.41628 | -49.03416 | 6863 ft | 120 kts | 358° |
| 2026-04-23 20:49 | -12.40799 | -49.03538 | 6863 ft | 120 kts | 358° |
| 2026-04-23 20:49 | -12.40243 | -49.03619 | 6864 ft | 120 kts | 358° |
| 2026-04-23 20:50 | -12.39415 | -49.03741 | 6869 ft | 120 kts | 358° |
| 2026-04-23 20:50 | -12.38585 | -49.03862 | 6864 ft | 121 kts | 359° |
| 2026-04-23 20:50 | -12.37766 | -49.03983 | 6872 ft | 121 kts | 359° |
| 2026-04-23 20:50 | -12.36932 | -49.04106 | 6863 ft | 121 kts | 359° |
| 2026-04-23 20:51 | -12.36088 | -49.04229 | 6867 ft | 121 kts | 359° |
| 2026-04-23 20:51 | -12.35267 | -49.04350 | 6869 ft | 120 kts | 359° |
| 2026-04-23 20:51 | -12.34438 | -49.04474 | 6869 ft | 120 kts | 359° |
| 2026-04-23 20:51 | -12.33610 | -49.04594 | 6867 ft | 120 kts | 359° |
| 2026-04-23 20:52 | -12.32781 | -49.04716 | 6869 ft | 120 kts | 359° |
| 2026-04-23 20:52 | -12.31951 | -49.04838 | 6872 ft | 120 kts | 359° |
| 2026-04-23 20:52 | -12.31125 | -49.04960 | 6872 ft | 120 kts | 359° |
| 2026-04-23 20:52 | -12.30295 | -49.05081 | 6872 ft | 120 kts | 360° |
| 2026-04-23 20:53 | -12.29468 | -49.05200 | 6874 ft | 120 kts | 359° |
| 2026-04-23 20:53 | -12.28642 | -49.05321 | 6878 ft | 120 kts | 359° |
| 2026-04-23 20:53 | -12.27828 | -49.05442 | 6874 ft | 120 kts | 359° |
| 2026-04-23 20:53 | -12.26998 | -49.05564 | 6870 ft | 120 kts | 359° |
| 2026-04-23 20:54 | -12.26171 | -49.05686 | 6875 ft | 120 kts | 359° |
| 2026-04-23 20:54 | -12.25345 | -49.05807 | 6875 ft | 120 kts | 359° |
| 2026-04-23 20:54 | -12.24518 | -49.05929 | 6872 ft | 120 kts | 360° |
| 2026-04-23 20:54 | -12.23689 | -49.06051 | 6867 ft | 120 kts | 360° |
| 2026-04-23 20:55 | -12.22861 | -49.06173 | 6871 ft | 120 kts | 360° |
| 2026-04-23 20:55 | -12.22036 | -49.06293 | 6867 ft | 120 kts | 360° |
| 2026-04-23 20:55 | -12.21213 | -49.06414 | 6872 ft | 119 kts | 360° |
| 2026-04-23 20:55 | -12.20389 | -49.06535 | 6873 ft | 119 kts | 0° |
| 2026-04-23 20:56 | -12.19567 | -49.06655 | 6869 ft | 119 kts | 360° |
| 2026-04-23 20:56 | -12.18744 | -49.06775 | 6870 ft | 119 kts | 360° |
| 2026-04-23 20:56 | -12.17921 | -49.06896 | 6869 ft | 119 kts | 360° |
| 2026-04-23 20:56 | -12.17101 | -49.07017 | 6874 ft | 119 kts | 360° |
| 2026-04-23 20:57 | -12.16292 | -49.07136 | 6875 ft | 119 kts | 360° |
| 2026-04-23 20:57 | -12.15471 | -49.07257 | 6870 ft | 119 kts | 360° |
| 2026-04-23 20:57 | -12.14650 | -49.07377 | 6874 ft | 119 kts | 0° |
| 2026-04-23 20:57 | -12.13827 | -49.07497 | 6868 ft | 119 kts | 0° |
| 2026-04-23 20:58 | -12.13006 | -49.07617 | 6874 ft | 119 kts | 0° |
| 2026-04-23 20:58 | -12.12182 | -49.07738 | 6870 ft | 120 kts | 360° |
| 2026-04-23 20:58 | -12.11359 | -49.07860 | 6877 ft | 120 kts | 0° |
| 2026-04-23 20:58 | -12.10533 | -49.07981 | 6875 ft | 120 kts | 0° |
| 2026-04-23 20:59 | -12.09711 | -49.08101 | 6873 ft | 119 kts | 0° |
| 2026-04-23 20:59 | -12.08885 | -49.08222 | 6870 ft | 119 kts | 0° |
| 2026-04-23 20:59 | -12.08067 | -49.08342 | 6876 ft | 119 kts | 0° |
| 2026-04-23 20:59 | -12.07246 | -49.08462 | 6871 ft | 119 kts | 0° |
| 2026-04-23 21:00 | -12.06427 | -49.08581 | 6874 ft | 119 kts | 0° |
| 2026-04-23 21:00 | -12.05607 | -49.08701 | 6881 ft | 119 kts | 0° |
| 2026-04-23 21:00 | -12.04795 | -49.08821 | 6873 ft | 119 kts | 0° |
| 2026-04-23 21:00 | -12.03972 | -49.08943 | 6877 ft | 119 kts | 0° |
| 2026-04-23 21:01 | -12.03149 | -49.09063 | 6872 ft | 119 kts | 0° |
| 2026-04-23 21:01 | -12.02327 | -49.09184 | 6869 ft | 119 kts | 0° |
| 2026-04-23 21:01 | -12.01506 | -49.09305 | 6859 ft | 118 kts | 1° |
| 2026-04-23 21:01 | -12.00693 | -49.09423 | 6872 ft | 118 kts | 1° |
| 2026-04-23 21:02 | -11.99876 | -49.09541 | 6870 ft | 118 kts | 1° |
| 2026-04-23 21:02 | -11.99066 | -49.09660 | 6879 ft | 118 kts | 1° |
| 2026-04-23 21:02 | -11.98244 | -49.09779 | 6824 ft | 124 kts | 1° |
| 2026-04-23 21:02 | -11.97367 | -49.09905 | 6713 ft | 130 kts | 0° |
| 2026-04-23 21:03 | -11.96469 | -49.10039 | 6613 ft | 133 kts | 360° |
| 2026-04-23 21:03 | -11.95573 | -49.10176 | 6500 ft | 128 kts | 0° |
| 2026-04-23 21:03 | -11.94701 | -49.10303 | 6382 ft | 125 kts | 0° |
| 2026-04-23 21:03 | -11.93841 | -49.10427 | 6256 ft | 124 kts | 1° |
| 2026-04-23 21:04 | -11.92986 | -49.10550 | 6126 ft | 123 kts | 0° |
| 2026-04-23 21:04 | -11.92138 | -49.10675 | 6002 ft | 123 kts | 0° |
| 2026-04-23 21:04 | -11.91291 | -49.10799 | 5880 ft | 123 kts | 0° |
| 2026-04-23 21:04 | -11.90444 | -49.10923 | 5751 ft | 122 kts | 360° |
| 2026-04-23 21:05 | -11.89605 | -49.11045 | 5625 ft | 121 kts | 359° |
| 2026-04-23 21:05 | -11.88773 | -49.11168 | 5504 ft | 120 kts | 359° |
| 2026-04-23 21:05 | -11.87943 | -49.11289 | 5392 ft | 120 kts | 359° |
| 2026-04-23 21:05 | -11.87123 | -49.11408 | 5269 ft | 120 kts | 359° |
| 2026-04-23 21:06 | -11.86293 | -49.11530 | 5145 ft | 121 kts | 358° |
| 2026-04-23 21:06 | -11.85464 | -49.11655 | 5023 ft | 121 kts | 358° |
| 2026-04-23 21:06 | -11.84628 | -49.11776 | 4908 ft | 121 kts | 359° |
| 2026-04-23 21:06 | -11.83795 | -49.11895 | 4789 ft | 121 kts | 358° |
| 2026-04-23 21:07 | -11.82960 | -49.12016 | 4674 ft | 121 kts | 358° |
| 2026-04-23 21:07 | -11.82126 | -49.12142 | 4547 ft | 121 kts | 358° |
| 2026-04-23 21:07 | -11.81291 | -49.12265 | 4427 ft | 121 kts | 358° |
| 2026-04-23 21:07 | -11.80485 | -49.12383 | 4294 ft | 112 kts | 358° |
| 2026-04-23 21:08 | -11.79742 | -49.12493 | 4166 ft | 104 kts | 359° |
| 2026-04-23 21:08 | -11.79040 | -49.12594 | 4046 ft | 100 kts | 359° |
| 2026-04-23 21:08 | -11.78365 | -49.12690 | 3926 ft | 96 kts | 359° |
| 2026-04-23 21:08 | -11.77711 | -49.12786 | 3804 ft | 94 kts | 359° |
| 2026-04-23 21:09 | -11.77073 | -49.12882 | 3683 ft | 92 kts | 359° |
| 2026-04-23 21:09 | -11.76443 | -49.12975 | 3572 ft | 91 kts | 360° |
| 2026-04-23 21:09 | -11.75810 | -49.13055 | 3379 ft | 96 kts | 7° |
| 2026-04-23 21:09 | -11.75159 | -49.12993 | 3075 ft | 94 kts | 11° |
| 2026-04-23 21:10 | -11.74504 | -49.13114 | 2759 ft | 98 kts | 354° |
| 2026-04-23 21:10 | -11.73814 | -49.13249 | 2453 ft | 103 kts | 359° |
| 2026-04-23 21:10 | -11.73156 | -49.13510 | 2252 ft | 101 kts | 323° |
| 2026-04-23 21:10 | -11.72774 | -49.14067 | 2124 ft | 90 kts | 304° |
| 2026-04-23 21:11 | -11.72676 | -49.14645 | 1937 ft | 81 kts | 245° |
| 2026-04-23 21:11 | -11.73081 | -49.14977 | 1625 ft | 72 kts | 187° |
| 2026-04-23 21:11 | -11.73465 | -49.14853 | 1437 ft | 53 kts | 150° |
| 2026-04-23 21:11 | -11.73710 | -49.14600 | 1326 ft | 48 kts | 121° |
| 2026-04-23 21:12 | -11.73814 | -49.14281 | 1238 ft | 44 kts | 96° |
| 2026-04-23 21:12 | -11.73863 | -49.14002 | 1169 ft | 39 kts | 105° |
| 2026-04-23 21:12 | -11.73915 | -49.13780 | 1154 ft | 15 kts | 112° |
| 2026-04-23 21:12 | -11.73908 | -49.13722 | 1154 ft | 8 kts | 73° |
| 2026-04-23 21:13 | -11.73898 | -49.13640 | 1154 ft | 15 kts | 92° |
| 2026-04-23 21:13 | -11.73890 | -49.13591 | 1151 ft | 5 kts | 43° |
| 2026-04-23 21:13 | -11.73844 | -49.13591 | 1154 ft | 14 kts | 348° |
| 2026-04-23 21:13 | -11.73738 | -49.13595 | 1154 ft | 5 kts | 33° |
| 2026-04-23 21:14 | -11.73737 | -49.13594 | 1154 ft | 0 kts | 47° |